Herschel Island, Yukon

Past 24 Hour Conditions

This table is a summary of hourly weather conditions for the past 24 hours. This summary includes the following parameters: temperature, humidity, dew point, wind speed and direction, air pressure, visibility and/or wind chill and humidex.
Date / Time
(PDT)
Conditions Temp (°F) Humidity (%) Dew Point (°F) Wind (mph) Pressure (inches) Vis (mi) Wind Chill
02 September 2014
00:00 N/A 40 85 36 NW 17 29.4 N/A *
01 September 2014
23:00 N/A 41 76 34 WNW 23 29.4 N/A *
22:00 N/A 44 72 36 SW 14 29.4 N/A *
21:00 N/A 46 66 35 SW 17 29.4 N/A *
20:00 N/A 46 67 36 SW 16 29.4 N/A *
19:00 N/A 49 61 36 SW 26 gust 33 29.4 N/A *
18:00 N/A 48 62 36 WSW 18 29.4 N/A *
17:00 N/A 51   56 36 WSW 19 29.4 N/A *
16:00 N/A 50 57 35 WSW 17 29.4 N/A *
15:00 N/A 50 58 35 WSW 14 29.4 N/A *
14:00 N/A 49 55 34 WSW 17 29.4 N/A *
13:00 N/A 49 51 32 WSW 8 29.4 N/A *
12:00 N/A 48 55 33 WSW 14 29.4 N/A *
11:00 N/A 46 57 32 WSW 17 29.4 N/A *
10:00 N/A 44 68 34 SSW 9 29.5 N/A *
9:00 N/A 41 71 33 S 12 29.5 N/A *
8:00 N/A 36 89 33 calm 29.5 N/A *
7:00 N/A 34 89 31 calm 29.6 N/A *
6:00 N/A 37 87 33 SE 3 29.6 N/A *
5:00 N/A 39 90 36 ESE 8 29.6 N/A *
4:00 N/A 38 96 37 SE 7 29.6 N/A *
3:00 N/A 37 97 36 SE 6 29.6 N/A *
2:00 N/A 31 95 30 calm 29.7 N/A 30
1:00 N/A 30   95 29 NE 2 29.7 N/A 28
00:00 N/A 31 94 30 N 3 29.7 N/A 29
N/A
Not available
 ↑ 
Highest temperature
 ↓ 
Lowest temperature
*
Value not significant.

If you require additional historical weather information, please visit Climate Data Online.